Terminal Aerodrome Forecast
Issued by NWS Grand Forks, ND

Home | Current Version | Previous Version | Text Only | Print | Product List | Glossary Off
Versions: 1 2 3 4 5 6 7 8 9 10 11 12 13 14 15

052
FTUS43 KFGF 211723
TAFGFK
TAF
KGFK 211723Z 2118/2218 17014G24KT P6SM FEW060
     FM220100 17011KT P6SM SCT250
     FM221200 16014KT P6SM FEW080 SCT250
     FM221600 17017G28KT P6SM SCT070 BKN250=

USA.gov is the U.S. government's official web portal to all federal, state and local government web resources and services.